Time;durP1;ratioP1;P1;durP2;ratioP2;P2;SDS_P1;SDS_P2;PMS_P1;PMS_P2;Temp;Humidity;BMP_temperature;BMP_pressure;BME280_temperature;BME280_humidity;BME280_pressure;Samples;Min_cycle;Max_cycle;Signal;HPM_P1;HPM_P2
2022/12/08 00:01:11;;;;;;;6.55;1.20;;;2.30;99.90;;;;;;5049698;28;20515;-82
2022/12/08 00:03:37;;;;;;;7.32;1.15;;;2.30;99.90;;;;;;5040160;28;20114;-82
2022/12/08 00:11:34;;;;;;;6.65;1.50;;;2.40;99.90;;;;;;5042345;28;20135;-81
2022/12/08 00:14:00;;;;;;;5.03;1.23;;;2.40;99.90;;;;;;5042136;28;20056;-82
2022/12/08 00:16:26;;;;;;;6.97;1.10;;;2.40;99.90;;;;;;5053416;28;20040;-83
2022/12/08 00:18:52;;;;;;;5.07;1.00;;;2.40;99.90;;;;;;5031475;28;20448;-83
2022/12/08 00:21:17;;;;;;;3.45;1.05;;;2.40;99.90;;;;;;5026249;28;20084;-85
2022/12/08 00:23:43;;;;;;;7.97;1.00;;;2.40;99.90;;;;;;5045533;28;20045;-86
2022/12/08 00:26:09;;;;;;;6.22;0.95;;;2.40;99.90;;;;;;5029093;28;20049;-84
2022/12/08 00:28:35;;;;;;;8.10;1.67;;;2.40;99.90;;;;;;5042185;28;20375;-85
2022/12/08 00:31:07;;;;;;;8.05;1.05;;;2.40;99.90;;;;;;5033499;28;20086;-85
2022/12/08 00:33:33;;;;;;;8.60;1.33;;;2.50;99.90;;;;;;5051817;28;20032;-84
2022/12/08 00:36:08;;;;;;;5.55;1.10;;;2.50;99.90;;;;;;5028996;28;20044;-81
2022/12/08 00:38:35;;;;;;;6.93;1.33;;;2.50;99.90;;;;;;5025638;28;20037;-81
2022/12/08 00:41:02;;;;;;;4.88;1.10;;;2.90;99.90;;;;;;5031712;28;20047;-83
2022/12/08 00:43:27;;;;;;;14.35;1.90;;;2.50;99.90;;;;;;5023108;28;20568;-82
2022/12/08 00:45:53;;;;;;;7.40;1.40;;;2.50;99.90;;;;;;5022738;28;20119;-83
2022/12/08 00:48:19;;;;;;;3.88;0.80;;;2.90;99.90;;;;;;5046601;28;20056;-83
2022/12/08 00:50:44;;;;;;;3.78;0.80;;;2.50;99.90;;;;;;5038084;28;20123;-81
2022/12/08 00:53:10;;;;;;;6.43;1.02;;;2.50;99.90;;;;;;5056004;28;20102;-82
2022/12/08 00:55:36;;;;;;;5.53;0.80;;;2.60;99.90;;;;;;5048731;28;20036;-83
2022/12/08 00:58:01;;;;;;;9.35;1.00;;;2.50;99.90;;;;;;5046447;28;20449;-82
2022/12/08 01:00:27;;;;;;;4.45;0.77;;;2.50;99.90;;;;;;5053244;28;20508;-82
2022/12/08 01:02:53;;;;;;;5.97;1.05;;;2.50;99.90;;;;;;5037023;28;20048;-82
2022/12/08 01:05:19;;;;;;;4.00;1.02;;;2.50;99.90;;;;;;5018940;28;20405;-83
2022/12/08 01:07:47;;;;;;;5.43;0.98;;;2.50;99.90;;;;;;5023412;28;20133;-82
2022/12/08 01:10:13;;;;;;;6.20;1.30;;;2.50;99.90;;;;;;5060077;28;20105;-82
2022/12/08 01:12:39;;;;;;;6.00;1.33;;;2.50;99.90;;;;;;5036773;28;20386;-82
2022/12/08 01:15:05;;;;;;;6.60;1.00;;;2.50;99.90;;;;;;5040472;28;20848;-83
2022/12/08 01:17:31;;;;;;;5.97;1.05;;;2.50;99.90;;;;;;5062575;28;20382;-83
2022/12/08 01:19:57;;;;;;;4.60;0.80;;;3.50;99.90;;;;;;5024252;28;20044;-83
2022/12/08 01:22:23;;;;;;;2.65;0.52;;;2.60;99.90;;;;;;5026449;28;20486;-83
2022/12/08 01:24:49;;;;;;;5.78;1.15;;;2.60;99.90;;;;;;5024686;28;20036;-83
2022/12/08 01:27:15;;;;;;;6.65;0.60;;;2.60;99.90;;;;;;5031452;28;20516;-81
2022/12/08 01:29:41;;;;;;;3.97;0.60;;;2.60;99.90;;;;;;5039801;28;20048;-81
2022/12/08 01:32:10;;;;;;;4.10;0.50;;;3.00;99.90;;;;;;5026543;28;20051;-82
2022/12/08 01:34:35;;;;;;;6.05;1.13;;;3.00;99.90;;;;;;5047180;28;20056;-82
2022/12/08 01:37:01;;;;;;;3.30;0.60;;;3.50;99.90;;;;;;5017260;28;20076;-82
2022/12/08 01:39:27;;;;;;;6.10;0.80;;;2.60;99.90;;;;;;5040515;28;20040;-82
2022/12/08 01:41:53;;;;;;;5.03;0.75;;;3.00;99.90;;;;;;5042237;28;20052;-82
2022/12/08 01:44:19;;;;;;;3.13;0.73;;;2.60;99.90;;;;;;5049126;28;20053;-82
2022/12/08 01:46:48;;;;;;;5.57;0.93;;;2.50;99.90;;;;;;5030980;28;20041;-82
2022/12/08 01:49:26;;;;;;;5.80;1.00;;;2.50;99.90;;;;;;5023348;28;20059;-83
2022/12/08 01:52:11;;;;;;;3.08;0.80;;;3.40;99.90;;;;;;5058348;28;20780;-82
2022/12/08 01:55:03;;;;;;;5.63;0.90;;;2.50;99.90;;;;;;5046813;28;20044;-82
2022/12/08 01:57:43;;;;;;;4.57;0.88;;;2.50;99.90;;;;;;5030743;28;20059;-82
2022/12/08 02:00:13;;;;;;;7.10;0.77;;;2.50;99.90;;;;;;5028357;28;20521;-82
2022/12/08 02:03:02;;;;;;;6.97;0.60;;;2.50;99.90;;;;;;5058198;28;20048;-82
2022/12/08 02:05:33;;;;;;;1.38;0.50;;;3.00;99.90;;;;;;5063263;28;20144;-80
2022/12/08 02:08:03;;;;;;;3.53;0.57;;;2.50;99.90;;;;;;5036758;28;20050;-82
2022/12/08 02:10:31;;;;;;;1.50;0.40;;;2.50;99.90;;;;;;5033625;28;20055;-82
2022/12/08 02:12:59;;;;;;;4.47;0.70;;;2.50;99.90;;;;;;5028766;28;20035;-82
2022/12/08 02:15:33;;;;;;;5.78;0.98;;;2.50;99.90;;;;;;5057751;28;20049;-82
2022/12/08 02:18:43;;;;;;;1.33;0.52;;;2.50;99.90;;;;;;5043564;28;20045;-82
2022/12/08 02:21:15;;;;;;;2.53;0.43;;;2.50;99.90;;;;;;4959605;28;20090;-82
2022/12/08 02:23:58;;;;;;;3.35;0.43;;;2.50;99.90;;;;;;5027402;28;20047;-82
2022/12/08 02:27:04;;;;;;;3.05;0.50;;;2.50;99.90;;;;;;5042393;28;20041;-82
2022/12/08 02:29:55;;;;;;;3.53;0.63;;;2.50;99.90;;;;;;5022985;28;20041;-83
2022/12/08 02:32:49;;;;;;;4.00;0.60;;;2.50;99.90;;;;;;5018952;28;20441;-84
2022/12/08 02:35:24;;;;;;;5.18;0.68;;;2.50;99.90;;;;;;5037343;28;20135;-84
2022/12/08 02:37:56;;;;;;;3.78;0.57;;;2.50;99.90;;;;;;5049483;28;20056;-84
2022/12/08 02:40:31;;;;;;;1.85;0.60;;;2.50;99.90;;;;;;5040377;28;20044;-86
2022/12/08 02:43:08;;;;;;;2.13;0.38;;;2.80;99.90;;;;;;5028908;28;20044;-84
2022/12/08 02:45:43;;;;;;;3.67;0.57;;;2.50;99.90;;;;;;5035741;28;20098;-85
2022/12/08 02:48:10;;;;;;;3.72;0.40;;;2.50;99.90;;;;;;5013936;28;20064;-84
2022/12/08 02:50:36;;;;;;;2.83;0.50;;;2.60;99.90;;;;;;4997858;28;20050;-84
2022/12/08 02:53:02;;;;;;;2.53;0.70;;;2.50;99.90;;;;;;5017550;28;20052;-83
2022/12/08 02:56:03;;;;;;;4.25;0.52;;;2.50;99.90;;;;;;5009081;28;20053;-84
2022/12/08 02:58:47;;;;;;;2.33;0.70;;;2.50;99.90;;;;;;4998482;28;20050;-84
2022/12/08 03:01:28;;;;;;;3.72;1.13;;;2.50;99.90;;;;;;5013514;28;20042;-84
2022/12/08 03:04:12;;;;;;;3.35;1.50;;;2.50;99.90;;;;;;5001394;28;20045;-84
2022/12/08 03:06:54;;;;;;;3.83;1.38;;;2.50;99.90;;;;;;4990671;28;20469;-83
2022/12/08 03:09:36;;;;;;;2.70;1.17;;;2.50;99.90;;;;;;5010693;28;20037;-83
2022/12/08 03:12:30;;;;;;;5.78;1.27;;;2.50;99.90;;;;;;5020149;28;20046;-84
2022/12/08 03:15:02;;;;;;;4.45;1.10;;;2.50;99.90;;;;;;4998010;28;20076;-84
2022/12/08 03:17:30;;;;;;;3.53;1.17;;;2.50;99.90;;;;;;5014060;28;20077;-83
2022/12/08 03:19:58;;;;;;;6.05;1.35;;;2.50;99.90;;;;;;5016752;28;20041;-83
2022/12/08 03:22:26;;;;;;;5.00;1.20;;;2.50;99.90;;;;;;5015378;28;20582;-83
2022/12/08 03:24:53;;;;;;;5.40;1.27;;;2.40;99.90;;;;;;4998434;28;20422;-83
2022/12/08 03:27:23;;;;;;;3.95;0.93;;;2.40;99.90;;;;;;5017088;28;20459;-82
2022/12/08 03:29:52;;;;;;;2.10;0.80;;;2.40;99.90;;;;;;5016318;28;20048;-83
2022/12/08 03:32:35;;;;;;;6.10;1.00;;;2.40;99.90;;;;;;5020335;28;20056;-83
2022/12/08 03:35:05;;;;;;;6.07;0.85;;;2.40;99.90;;;;;;5018146;28;20384;-82
2022/12/08 03:37:34;;;;;;;4.82;0.75;;;2.30;99.90;;;;;;5008138;28;20050;-83
2022/12/08 03:40:00;;;;;;;2.53;0.75;;;2.50;99.90;;;;;;5029808;28;20049;-82
2022/12/08 03:42:26;;;;;;;4.15;0.80;;;2.30;99.90;;;;;;5010434;28;20077;-84
2022/12/08 03:44:52;;;;;;;3.75;0.50;;;2.30;99.90;;;;;;5024244;28;20154;-83
2022/12/08 03:47:18;;;;;;;1.15;0.60;;;2.70;99.90;;;;;;5017461;28;20053;-83
2022/12/08 03:49:43;;;;;;;2.53;0.80;;;2.30;99.90;;;;;;5059655;28;20133;-83
2022/12/08 03:52:09;;;;;;;2.72;1.00;;;3.10;99.90;;;;;;5046585;28;20636;-83
2022/12/08 03:54:35;;;;;;;4.13;0.75;;;2.30;99.90;;;;;;5038153;28;20043;-82
2022/12/08 03:57:00;;;;;;;3.50;0.98;;;2.50;99.90;;;;;;5044234;28;20055;-83
2022/12/08 03:59:26;;;;;;;3.08;1.00;;;2.20;99.90;;;;;;5043271;28;20135;-82
2022/12/08 04:01:52;;;;;;;2.75;0.85;;;2.30;99.90;;;;;;5042132;28;20166;-83
2022/12/08 04:04:18;;;;;;;1.90;0.70;;;2.20;99.90;;;;;;5040468;28;20392;-84
2022/12/08 04:06:44;;;;;;;1.17;0.60;;;2.30;99.90;;;;;;5046201;28;20066;-82
2022/12/08 04:09:09;;;;;;;2.83;0.60;;;2.90;99.90;;;;;;5026695;28;20040;-83
2022/12/08 04:11:35;;;;;;;1.48;0.45;;;2.30;99.90;;;;;;5041782;28;20517;-83
2022/12/08 04:14:01;;;;;;;1.25;0.40;;;2.30;99.90;;;;;;5021627;28;20123;-84
2022/12/08 04:16:27;;;;;;;2.75;0.40;;;2.20;99.90;;;;;;5021376;28;20052;-83
2022/12/08 04:18:53;;;;;;;2.78;0.40;;;2.20;99.90;;;;;;5020969;28;20124;-83
2022/12/08 04:21:19;;;;;;;1.10;0.50;;;2.40;99.90;;;;;;5025085;28;20862;-84
2022/12/08 04:23:46;;;;;;;2.10;0.50;;;2.20;99.90;;;;;;5026286;28;20055;-84
2022/12/08 04:26:25;;;;;;;1.92;0.70;;;2.20;99.90;;;;;;5026893;28;20064;-83
2022/12/08 04:28:50;;;;;;;2.63;0.85;;;2.20;99.90;;;;;;5040401;28;20037;-84
2022/12/08 04:31:16;;;;;;;2.30;0.43;;;2.50;99.90;;;;;;5026261;28;20044;-84
2022/12/08 04:33:43;;;;;;;1.85;0.40;;;2.20;99.90;;;;;;5022423;28;20045;-84
2022/12/08 04:36:09;;;;;;;1.48;0.40;;;3.40;99.90;;;;;;5040633;28;20135;-84
2022/12/08 04:38:34;;;;;;;2.03;0.43;;;2.20;99.90;;;;;;5059654;28;20048;-85
2022/12/08 04:41:01;;;;;;;2.20;0.60;;;2.20;99.90;;;;;;5042162;28;20051;-85
2022/12/08 04:43:27;;;;;;;1.13;0.52;;;2.20;99.90;;;;;;5029442;28;21693;-84
2022/12/08 04:45:52;;;;;;;3.42;0.43;;;2.20;99.90;;;;;;5026263;28;20060;-84
2022/12/08 04:48:18;;;;;;;2.05;0.50;;;2.20;99.90;;;;;;5022995;28;20045;-85
2022/12/08 04:50:44;;;;;;;1.48;0.47;;;2.20;99.90;;;;;;5059134;28;20127;-85
2022/12/08 04:53:11;;;;;;;2.75;0.40;;;2.20;99.90;;;;;;5053148;28;20047;-85
2022/12/08 04:55:40;;;;;;;5.30;0.73;;;2.20;99.90;;;;;;5039546;28;20044;-84
2022/12/08 04:58:06;;;;;;;3.50;0.50;;;2.70;99.90;;;;;;5045929;28;20045;-86
2022/12/08 05:00:35;;;;;;;2.67;0.38;;;2.20;99.90;;;;;;5059006;28;20669;-84
2022/12/08 05:03:01;;;;;;;4.50;0.68;;;2.20;99.90;;;;;;5041030;28;20055;-84
2022/12/08 05:05:27;;;;;;;2.63;0.60;;;2.10;99.90;;;;;;5042772;28;20405;-84
2022/12/08 05:07:53;;;;;;;1.92;0.60;;;2.90;99.90;;;;;;5042099;28;20043;-84
2022/12/08 05:10:19;;;;;;;5.90;0.60;;;2.20;99.90;;;;;;5038643;28;20042;-84
2022/12/08 05:12:45;;;;;;;2.17;0.50;;;2.10;99.90;;;;;;5037572;28;20563;-84
2022/12/08 05:15:10;;;;;;;2.88;0.50;;;2.10;99.90;;;;;;5056631;28;20045;-85
2022/12/08 05:17:36;;;;;;;2.58;0.50;;;2.10;99.90;;;;;;5033698;28;20040;-84
2022/12/08 05:20:03;;;;;;;2.58;0.40;;;2.10;99.90;;;;;;5045405;28;20759;-85
2022/12/08 05:22:29;;;;;;;1.38;0.50;;;2.10;99.90;;;;;;5026932;28;20464;-85
2022/12/08 05:24:55;;;;;;;2.03;0.40;;;2.10;99.90;;;;;;5036058;28;20045;-85
2022/12/08 05:27:21;;;;;;;1.70;0.47;;;2.10;99.90;;;;;;5020613;28;20052;-85
2022/12/08 05:29:47;;;;;;;2.75;0.40;;;2.10;99.90;;;;;;5021415;28;20666;-85
2022/12/08 05:32:13;;;;;;;0.70;0.40;;;2.10;99.90;;;;;;5039851;28;20040;-85
2022/12/08 05:34:38;;;;;;;2.35;0.60;;;2.30;99.90;;;;;;5050675;28;20093;-84
2022/12/08 05:37:04;;;;;;;2.25;0.52;;;2.10;99.90;;;;;;5044373;28;20529;-84
2022/12/08 05:39:30;;;;;;;1.95;0.60;;;2.10;99.90;;;;;;5060740;28;20039;-83
2022/12/08 05:41:55;;;;;;;3.70;0.70;;;2.10;99.90;;;;;;5029067;28;20059;-84
2022/12/08 05:44:21;;;;;;;3.05;0.73;;;2.10;99.90;;;;;;5026728;28;20083;-84
2022/12/08 05:46:47;;;;;;;0.95;0.40;;;2.70;99.90;;;;;;5060058;28;20040;-84
2022/12/08 05:49:13;;;;;;;1.30;0.57;;;3.00;99.90;;;;;;5036767;28;20775;-84
2022/12/08 05:51:39;;;;;;;2.97;0.52;;;2.00;99.90;;;;;;5061011;28;20048;-84
2022/12/08 05:54:04;;;;;;;0.95;0.40;;;2.80;99.90;;;;;;5019518;28;20119;-83
2022/12/08 05:56:30;;;;;;;3.08;0.30;;;2.00;99.90;;;;;;5029651;28;20131;-84
2022/12/08 05:58:56;;;;;;;0.93;0.35;;;2.70;99.90;;;;;;5063005;28;20037;-83
2022/12/08 06:01:24;;;;;;;3.92;0.38;;;2.00;99.90;;;;;;5039841;28;20053;-84
2022/12/08 06:03:51;;;;;;;0.70;0.50;;;2.00;99.90;;;;;;5058777;28;20036;-84
2022/12/08 06:06:17;;;;;;;2.78;0.60;;;2.00;99.90;;;;;;5043722;28;20052;-84
2022/12/08 06:08:43;;;;;;;1.52;0.57;;;1.90;99.90;;;;;;5033805;28;20052;-83
2022/12/08 06:11:09;;;;;;;1.10;0.60;;;2.00;99.90;;;;;;5041400;28;20051;-84
2022/12/08 06:13:35;;;;;;;1.58;0.50;;;2.00;99.90;;;;;;5049182;28;20529;-84
2022/12/08 06:16:05;;;;;;;2.60;0.52;;;2.00;99.90;;;;;;5025395;28;20037;-84
2022/12/08 06:18:31;;;;;;;0.73;0.40;;;2.00;99.90;;;;;;5036060;28;20033;-83
2022/12/08 06:21:08;;;;;;;1.88;0.60;;;2.50;99.90;;;;;;5053194;28;20153;-83
2022/12/08 06:23:34;;;;;;;3.80;0.55;;;1.90;99.90;;;;;;5038420;28;20044;-83
2022/12/08 06:26:05;;;;;;;1.67;0.40;;;1.90;99.90;;;;;;5021249;28;20571;-84
2022/12/08 06:28:31;;;;;;;2.13;0.70;;;1.90;99.90;;;;;;5040715;28;20052;-84
2022/12/08 06:30:58;;;;;;;2.38;0.50;;;1.90;99.90;;;;;;5037024;28;20047;-84
2022/12/08 06:33:25;;;;;;;1.73;0.57;;;1.90;99.90;;;;;;5020474;28;20948;-84
2022/12/08 06:35:51;;;;;;;3.65;0.52;;;1.90;99.90;;;;;;5035576;28;20047;-84
2022/12/08 06:38:17;;;;;;;2.38;0.70;;;1.90;99.90;;;;;;5017552;28;20060;-84
2022/12/08 06:40:43;;;;;;;1.77;0.45;;;1.90;99.90;;;;;;5053681;28;20094;-84
2022/12/08 06:43:09;;;;;;;1.27;0.50;;;1.90;99.90;;;;;;5021585;28;20067;-84
2022/12/08 06:45:35;;;;;;;2.95;0.65;;;1.80;99.90;;;;;;5056082;28;20533;-86
2022/12/08 06:48:01;;;;;;;2.38;0.70;;;1.80;99.90;;;;;;5043087;28;20052;-83
2022/12/08 06:50:27;;;;;;;3.15;0.50;;;2.50;99.90;;;;;;5061155;28;20052;-83
2022/12/08 06:52:53;;;;;;;3.78;0.57;;;1.80;99.90;;;;;;5024610;28;20125;-85
2022/12/08 06:55:19;;;;;;;2.88;0.52;;;1.80;99.90;;;;;;5039872;28;20029;-84
2022/12/08 06:57:48;;;;;;;2.47;0.60;;;1.80;99.90;;;;;;5038157;28;20048;-84
2022/12/08 07:00:15;;;;;;;3.25;0.60;;;2.30;99.90;;;;;;5057839;28;20086;-86
2022/12/08 07:02:41;;;;;;;3.55;0.70;;;1.80;99.90;;;;;;5040002;28;20051;-84
2022/12/08 07:05:07;;;;;;;1.75;0.60;;;1.70;99.90;;;;;;5035116;28;20064;-83
2022/12/08 07:07:33;;;;;;;3.17;1.27;;;1.70;99.90;;;;;;5042876;28;20052;-83
2022/12/08 07:09:59;;;;;;;4.55;0.75;;;2.30;99.90;;;;;;5041118;28;20053;-84
2022/12/08 07:12:24;;;;;;;2.03;0.80;;;1.90;99.90;;;;;;5040698;28;20054;-83
2022/12/08 07:14:50;;;;;;;2.65;0.50;;;1.70;99.90;;;;;;5022424;28;20048;-83
2022/12/08 07:17:16;;;;;;;2.83;0.75;;;1.70;99.90;;;;;;5015044;28;20071;-83
2022/12/08 07:19:41;;;;;;;2.10;0.80;;;1.60;99.90;;;;;;5062780;28;20048;-84
2022/12/08 07:22:07;;;;;;;4.18;0.90;;;2.70;99.90;;;;;;5023107;28;20037;-83
2022/12/08 07:24:33;;;;;;;2.88;0.77;;;1.60;99.90;;;;;;5044912;28;20053;-83
2022/12/08 07:26:59;;;;;;;2.88;0.70;;;1.60;99.90;;;;;;5045372;28;20056;-83
2022/12/08 07:29:25;;;;;;;2.40;0.80;;;2.40;99.90;;;;;;5023926;28;20040;-83
2022/12/08 07:31:50;;;;;;;2.53;0.90;;;1.50;99.90;;;;;;5023793;28;20047;-83
2022/12/08 07:34:16;;;;;;;2.55;0.80;;;1.50;99.90;;;;;;5040589;28;20090;-83
2022/12/08 07:36:42;;;;;;;4.20;1.25;;;1.40;99.90;;;;;;5035861;28;20052;-84
2022/12/08 07:39:08;;;;;;;3.13;1.23;;;1.40;99.90;;;;;;5056486;28;20029;-84
2022/12/08 07:41:34;;;;;;;3.05;1.00;;;1.40;99.90;;;;;;5030426;28;20041;-84
2022/12/08 07:44:00;;;;;;;3.63;1.00;;;1.80;99.90;;;;;;5020882;28;20052;-84
2022/12/08 07:46:26;;;;;;;1.92;0.85;;;1.40;99.90;;;;;;5018178;28;20041;-84
2022/12/08 07:48:53;;;;;;;2.85;0.88;;;1.80;99.90;;;;;;5022791;28;20144;-83
2022/12/08 07:51:19;;;;;;;3.92;1.30;;;1.40;99.90;;;;;;5053447;28;20055;-83
2022/12/08 07:53:47;;;;;;;3.60;1.00;;;1.40;99.90;;;;;;5027720;28;20044;-83
2022/12/08 07:56:13;;;;;;;3.63;1.02;;;1.40;99.90;;;;;;5022642;28;20056;-83
2022/12/08 07:58:40;;;;;;;3.63;0.95;;;1.50;99.90;;;;;;5016547;28;20109;-83
2022/12/08 08:01:06;;;;;;;3.53;1.20;;;1.30;99.90;;;;;;5036119;28;20052;-85
2022/12/08 08:03:32;;;;;;;2.40;1.00;;;1.30;99.90;;;;;;5054401;28;20048;-83
2022/12/08 08:06:03;;;;;;;3.30;1.20;;;1.30;99.90;;;;;;5054725;28;20037;-84
2022/12/08 08:08:28;;;;;;;3.42;1.10;;;1.30;99.90;;;;;;5025842;28;20129;-86
2022/12/08 08:10:54;;;;;;;5.25;1.30;;;1.30;99.90;;;;;;5031367;28;20611;-84
2022/12/08 08:13:20;;;;;;;3.28;1.33;;;1.30;99.90;;;;;;5026020;28;20044;-84
2022/12/08 08:15:49;;;;;;;5.40;1.10;;;1.30;99.90;;;;;;5021773;28;20072;-83
2022/12/08 08:18:14;;;;;;;6.53;1.33;;;1.30;99.90;;;;;;5055330;28;20044;-84
2022/12/08 08:20:40;;;;;;;3.70;1.30;;;1.20;99.90;;;;;;5031123;28;20107;-83
2022/12/08 08:23:06;;;;;;;4.13;1.20;;;1.20;99.90;;;;;;5048080;28;20044;-84
2022/12/08 08:25:35;;;;;;;4.28;1.13;;;1.20;99.90;;;;;;5075397;28;20032;-84
2022/12/08 08:28:01;;;;;;;4.13;1.65;;;1.10;99.90;;;;;;5048076;28;20051;-84
2022/12/08 08:30:29;;;;;;;5.05;1.30;;;1.30;99.90;;;;;;5061787;28;20052;-83
2022/12/08 08:32:55;;;;;;;4.78;1.25;;;1.20;99.90;;;;;;5037667;28;20452;-84
2022/12/08 08:35:21;;;;;;;7.57;1.30;;;1.20;99.90;;;;;;5021285;28;20052;-84
2022/12/08 08:37:46;;;;;;;6.97;1.60;;;1.20;99.90;;;;;;5051832;28;20524;-85
2022/12/08 08:40:12;;;;;;;5.68;1.48;;;1.20;99.90;;;;;;5034440;28;20048;-84
2022/12/08 08:42:38;;;;;;;4.20;1.17;;;1.20;99.90;;;;;;5025267;28;20041;-84
2022/12/08 08:45:04;;;;;;;5.18;1.33;;;1.20;99.90;;;;;;5061244;28;20037;-84
2022/12/08 08:47:30;;;;;;;6.72;1.40;;;1.20;99.90;;;;;;5025496;28;20086;-84
2022/12/08 08:49:55;;;;;;;3.40;1.27;;;2.20;99.90;;;;;;5044506;28;20123;-84
2022/12/08 08:52:21;;;;;;;3.08;1.30;;;1.20;99.90;;;;;;5063032;28;20403;-84
2022/12/08 08:54:47;;;;;;;5.13;1.20;;;1.20;99.90;;;;;;5042728;28;20036;-83
2022/12/08 08:57:13;;;;;;;3.08;1.25;;;1.20;99.90;;;;;;5029482;28;20141;-84
2022/12/08 08:59:38;;;;;;;6.22;1.58;;;1.20;99.90;;;;;;5064423;28;20517;-85
2022/12/08 09:02:04;;;;;;;4.25;1.40;;;1.20;99.90;;;;;;5043631;28;20047;-84
2022/12/08 09:04:30;;;;;;;4.30;1.50;;;1.20;99.90;;;;;;5046977;28;20457;-84
2022/12/08 09:06:58;;;;;;;6.43;1.38;;;2.40;99.90;;;;;;5065134;28;20039;-84
2022/12/08 09:09:24;;;;;;;6.88;1.50;;;1.80;99.90;;;;;;5026023;28;20040;-84
2022/12/08 09:11:49;;;;;;;5.30;1.60;;;1.20;99.90;;;;;;5060988;28;20043;-84
2022/12/08 09:14:15;;;;;;;7.13;1.48;;;1.30;99.90;;;;;;5047184;28;20492;-84
2022/12/08 09:16:41;;;;;;;5.85;1.73;;;1.30;99.90;;;;;;5041970;28;20050;-84
2022/12/08 09:19:07;;;;;;;6.03;1.52;;;1.40;99.90;;;;;;5029421;28;20451;-84
2022/12/08 09:21:33;;;;;;;6.07;1.83;;;2.50;99.90;;;;;;5027431;28;20052;-83
2022/12/08 09:23:59;;;;;;;8.65;1.90;;;1.50;99.90;;;;;;5026115;28;20139;-83
2022/12/08 09:26:26;;;;;;;7.47;1.42;;;1.50;99.90;;;;;;5048857;28;20045;-84
2022/12/08 09:28:54;;;;;;;8.73;1.85;;;1.60;99.90;;;;;;5031637;28;20104;-84
2022/12/08 09:31:21;;;;;;;6.38;1.38;;;2.00;99.90;;;;;;5021541;28;20129;-84
2022/12/08 09:33:50;;;;;;;4.22;1.50;;;1.70;99.90;;;;;;5033893;28;20047;-83
2022/12/08 09:36:16;;;;;;;8.57;1.75;;;1.80;99.90;;;;;;5020397;28;20045;-84
2022/12/08 09:38:42;;;;;;;6.53;2.00;;;1.80;99.90;;;;;;5030987;28;20417;-84
2022/12/08 09:41:35;;;;;;;9.00;2.03;;;1.90;99.90;;;;;;5019953;28;20041;-83
2022/12/08 09:44:11;;;;;;;7.70;1.75;;;1.90;99.90;;;;;;5015185;28;20881;-84
2022/12/08 09:46:37;;;;;;;8.75;1.50;;;2.50;99.90;;;;;;5047492;28;20781;-84
2022/12/08 09:49:08;;;;;;;6.93;1.73;;;1.90;99.90;;;;;;5029902;28;20417;-83
2022/12/08 09:51:38;;;;;;;7.18;1.45;;;1.90;99.90;;;;;;5033324;28;20044;-83
2022/12/08 09:54:24;;;;;;;4.25;1.30;;;1.90;99.90;;;;;;5024434;28;20056;-83
2022/12/08 09:56:58;;;;;;;6.40;1.67;;;2.00;99.90;;;;;;5061647;28;20379;-86
2022/12/08 09:59:31;;;;;;;5.65;1.38;;;2.00;99.90;;;;;;5021512;28;20044;-83
2022/12/08 10:01:58;;;;;;;6.00;2.03;;;3.10;99.90;;;;;;5018741;28;20045;-83
2022/12/08 10:04:35;;;;;;;5.20;1.55;;;2.00;99.90;;;;;;5042042;28;20689;-84
2022/12/08 10:07:15;;;;;;;4.82;1.50;;;2.00;99.90;;;;;;5040936;28;20396;-83
2022/12/08 10:10:03;;;;;;;11.93;2.08;;;2.00;99.90;;;;;;5034236;28;20387;-84
2022/12/08 10:12:42;;;;;;;6.78;1.52;;;2.00;99.90;;;;;;5041264;28;20597;-85
2022/12/08 10:15:45;;;;;;;10.52;1.92;;;2.10;99.90;;;;;;5036066;28;20044;-83
2022/12/08 10:18:18;;;;;;;5.85;1.88;;;2.10;99.90;;;;;;5027622;28;20044;-84
2022/12/08 10:20:49;;;;;;;9.77;1.90;;;2.30;99.90;;;;;;5038098;28;20053;-83
2022/12/08 10:23:23;;;;;;;9.50;2.30;;;2.30;99.90;;;;;;5051560;28;20217;-83
2022/12/08 10:25:57;;;;;;;11.15;1.90;;;2.30;99.90;;;;;;5024945;28;20711;-83
2022/12/08 10:28:23;;;;;;;10.00;1.80;;;2.40;99.90;;;;;;5066897;28;20376;-83
2022/12/08 10:30:49;;;;;;;10.43;1.80;;;2.40;99.90;;;;;;5026128;28;20036;-82
2022/12/08 10:33:19;;;;;;;5.93;1.65;;;2.40;99.90;;;;;;5039297;28;20043;-83
2022/12/08 10:35:57;;;;;;;5.03;1.60;;;2.40;99.90;;;;;;5024637;28;20063;-83
2022/12/08 10:38:35;;;;;;;6.00;2.10;;;3.00;99.90;;;;;;5059343;28;20173;-83
2022/12/08 10:41:10;;;;;;;13.18;2.25;;;2.50;99.90;;;;;;5025819;28;20679;-84
2022/12/08 10:43:47;;;;;;;9.18;1.50;;;2.60;99.90;;;;;;5062625;28;20021;-84
2022/12/08 10:46:24;;;;;;;6.15;1.25;;;2.60;99.90;;;;;;5039777;28;20048;-83
2022/12/08 10:49:24;;;;;;;9.85;1.60;;;2.70;99.90;;;;;;5026779;28;20084;-83
2022/12/08 10:51:50;;;;;;;5.55;1.50;;;2.70;99.90;;;;;;5026867;28;20032;-83
2022/12/08 10:54:33;;;;;;;9.23;2.17;;;2.80;99.90;;;;;;5062351;28;20098;-83
2022/12/08 10:56:59;;;;;;;7.38;1.60;;;2.80;99.90;;;;;;5064555;28;20079;-83
2022/12/08 10:59:25;;;;;;;4.88;1.33;;;2.80;99.90;;;;;;5021231;28;20059;-83
2022/12/08 11:01:53;;;;;;;4.63;1.15;;;2.80;99.90;;;;;;5038617;28;20049;-83
2022/12/08 11:04:37;;;;;;;10.45;1.40;;;2.90;99.90;;;;;;5068211;28;20082;-82
2022/12/08 11:07:10;;;;;;;7.90;1.55;;;2.90;99.90;;;;;;5041460;28;20123;-83
2022/12/08 11:09:45;;;;;;;5.03;1.10;;;2.90;99.90;;;;;;5028186;28;20052;-83
2022/12/08 11:12:16;;;;;;;5.55;1.27;;;2.90;99.90;;;;;;5044360;28;20060;-83
2022/12/08 11:14:41;;;;;;;6.53;1.23;;;2.90;99.90;;;;;;5028527;28;20043;-83
2022/12/08 11:17:11;;;;;;;10.38;1.30;;;3.10;99.90;;;;;;5057405;28;20041;-82
2022/12/08 11:19:39;;;;;;;8.45;1.33;;;3.00;99.90;;;;;;5022934;28;20077;-82
2022/12/08 11:22:38;;;;;;;3.80;1.13;;;3.00;99.90;;;;;;5042224;28;20397;-82
2022/12/08 11:25:07;;;;;;;4.45;1.17;;;3.00;99.90;;;;;;5030887;28;20040;-81
2022/12/08 11:27:35;;;;;;;5.82;1.20;;;3.10;99.90;;;;;;5049673;28;20037;-82
2022/12/08 11:30:05;;;;;;;11.40;1.38;;;3.10;99.90;;;;;;5045990;28;20042;-82
2022/12/08 11:32:31;;;;;;;10.40;1.35;;;3.20;99.90;;;;;;5019229;28;20106;-82
2022/12/08 11:35:03;;;;;;;12.70;1.50;;;3.30;99.90;;;;;;5027960;28;20041;-82
2022/12/08 11:37:40;;;;;;;7.50;1.70;;;4.00;99.90;;;;;;5047232;28;20048;-81
2022/12/08 11:40:19;;;;;;;7.80;1.10;;;3.40;99.90;;;;;;5052617;28;20671;-82
2022/12/08 11:42:51;;;;;;;2.22;0.50;;;3.50;99.90;;;;;;5034380;28;20087;-82
2022/12/08 11:45:24;;;;;;;1.73;0.30;;;3.50;99.90;;;;;;5034667;28;20559;-82
2022/12/08 11:48:12;;;;;;;4.40;0.60;;;3.50;99.90;;;;;;5038325;28;20049;-82
2022/12/08 11:50:44;;;;;;;4.63;0.60;;;3.40;99.90;;;;;;5035938;28;20068;-81
2022/12/08 11:53:42;;;;;;;4.40;0.57;;;3.50;99.90;;;;;;5043811;28;20044;-82
2022/12/08 11:56:45;;;;;;;0.98;0.38;;;3.40;99.90;;;;;;5029687;28;20707;-81
2022/12/08 11:59:17;;;;;;;4.70;0.60;;;3.40;99.90;;;;;;5035238;28;20037;-81
2022/12/08 12:01:43;;;;;;;4.55;0.60;;;3.40;99.90;;;;;;5023799;28;20404;-81
2022/12/08 12:04:34;;;;;;;2.85;0.50;;;4.10;99.90;;;;;;5016754;28;20127;-81
2022/12/08 12:07:24;;;;;;;1.67;0.30;;;3.30;99.90;;;;;;5040834;28;20456;-81
2022/12/08 12:10:17;;;;;;;3.25;0.50;;;3.30;99.90;;;;;;5061235;28;20508;-81
2022/12/08 12:13:05;;;;;;;2.50;0.40;;;3.30;99.90;;;;;;5026391;28;20045;-81
2022/12/08 12:15:49;;;;;;;1.75;0.38;;;3.30;99.90;;;;;;5022646;28;20051;-82
2022/12/08 12:18:26;;;;;;;1.40;0.40;;;3.30;99.90;;;;;;5030412;28;20096;-81
2022/12/08 12:21:12;;;;;;;3.03;0.20;;;3.30;99.90;;;;;;5054096;28;20080;-81
2022/12/08 12:23:43;;;;;;;2.42;0.40;;;3.30;99.90;;;;;;5029848;28;20543;-81
2022/12/08 12:26:20;;;;;;;2.75;0.60;;;3.40;99.90;;;;;;5058623;28;20055;-81
2022/12/08 12:29:05;;;;;;;1.25;0.30;;;3.40;99.90;;;;;;5038779;28;20390;-81
2022/12/08 12:31:40;;;;;;;2.40;0.50;;;3.40;99.90;;;;;;5022798;28;20051;-81
2022/12/08 12:34:37;;;;;;;2.33;0.65;;;3.40;99.90;;;;;;5044965;28;20043;-81
2022/12/08 12:37:11;;;;;;;2.50;0.30;;;3.40;99.90;;;;;;5037874;28;20103;-82
2022/12/08 12:39:52;;;;;;;3.65;0.55;;;3.70;99.90;;;;;;5024960;28;20518;-81
2022/12/08 12:42:40;;;;;;;5.38;0.80;;;3.40;99.90;;;;;;5038192;28;20040;-81
2022/12/08 12:45:16;;;;;;;5.38;0.90;;;3.40;99.90;;;;;;5056836;28;20075;-82
2022/12/08 12:48:02;;;;;;;3.13;0.90;;;3.40;99.90;;;;;;5021392;28;20061;-82
2022/12/08 12:50:31;;;;;;;5.32;1.27;;;3.40;99.90;;;;;;5015466;28;20049;-81
2022/12/08 12:53:01;;;;;;;5.00;0.98;;;3.40;99.90;;;;;;5037715;28;20043;-81
2022/12/08 12:55:49;;;;;;;2.55;0.80;;;3.40;99.90;;;;;;5055530;28;20036;-81
2022/12/08 12:58:28;;;;;;;7.43;1.40;;;3.40;99.90;;;;;;5026466;28;20062;-80
2022/12/08 13:01:09;;;;;;;7.78;1.40;;;3.40;99.90;;;;;;5036872;28;20077;-81
2022/12/08 13:04:00;;;;;;;7.38;1.60;;;3.40;99.90;;;;;;5042174;28;20067;-80
2022/12/08 13:06:44;;;;;;;10.43;1.20;;;3.40;99.90;;;;;;5038676;28;20044;-81
2022/12/08 13:09:22;;;;;;;4.55;1.13;;;3.50;99.90;;;;;;5030610;28;20520;-81
2022/12/08 13:11:55;;;;;;;4.88;1.65;;;3.50;99.90;;;;;;5056715;28;20480;-81
2022/12/08 13:14:34;;;;;;;7.43;1.60;;;3.80;99.90;;;;;;5046026;28;20812;-80
2022/12/08 13:17:03;;;;;;;9.48;1.55;;;3.50;99.90;;;;;;5037053;28;20083;-80
2022/12/08 13:19:31;;;;;;;6.55;1.58;;;3.50;99.90;;;;;;5047512;28;20044;-81
2022/12/08 13:21:58;;;;;;;7.10;1.60;;;3.40;99.90;;;;;;5015985;28;20567;-81